sensor_id;sensor_type;location;lat;lon;timestamp;temperature;humidity
61374;DHT22;47242;48.158;-1.586;2022-12-29T00:01:32;11.90;83.20
61374;DHT22;47242;48.158;-1.586;2022-12-29T00:03:58;12.00;83.00
61374;DHT22;47242;48.158;-1.586;2022-12-29T00:06:24;11.90;82.70
61374;DHT22;47242;48.158;-1.586;2022-12-29T00:08:50;11.90;82.70
61374;DHT22;47242;48.158;-1.586;2022-12-29T00:11:21;11.90;82.80
61374;DHT22;47242;48.158;-1.586;2022-12-29T00:13:47;11.90;82.40
61374;DHT22;47242;48.158;-1.586;2022-12-29T00:16:33;11.90;82.80
61374;DHT22;47242;48.158;-1.586;2022-12-29T00:18:59;11.90;82.70
61374;DHT22;47242;48.158;-1.586;2022-12-29T00:21:26;12.00;82.80
61374;DHT22;47242;48.158;-1.586;2022-12-29T00:24:19;12.00;82.90
61374;DHT22;47242;48.158;-1.586;2022-12-29T00:26:58;12.00;82.80
61374;DHT22;47242;48.158;-1.586;2022-12-29T00:29:43;12.00;83.10
61374;DHT22;47242;48.158;-1.586;2022-12-29T00:32:27;12.00;83.30
61374;DHT22;47242;48.158;-1.586;2022-12-29T00:35:15;12.00;83.50
61374;DHT22;47242;48.158;-1.586;2022-12-29T00:37:44;12.00;83.50
61374;DHT22;47242;48.158;-1.586;2022-12-29T00:40:29;12.00;83.60
61374;DHT22;47242;48.158;-1.586;2022-12-29T00:43:13;11.90;83.50
61374;DHT22;47242;48.158;-1.586;2022-12-29T00:45:57;11.90;83.50
61374;DHT22;47242;48.158;-1.586;2022-12-29T00:48:23;12.00;83.60
61374;DHT22;47242;48.158;-1.586;2022-12-29T00:51:07;11.90;83.30
61374;DHT22;47242;48.158;-1.586;2022-12-29T00:53:34;11.80;83.30
61374;DHT22;47242;48.158;-1.586;2022-12-29T00:56:00;11.90;83.40
61374;DHT22;47242;48.158;-1.586;2022-12-29T00:58:29;11.90;83.30
61374;DHT22;47242;48.158;-1.586;2022-12-29T01:01:06;11.90;83.10
61374;DHT22;47242;48.158;-1.586;2022-12-29T01:03:33;11.90;83.20
61374;DHT22;47242;48.158;-1.586;2022-12-29T01:06:03;12.00;83.00
61374;DHT22;47242;48.158;-1.586;2022-12-29T01:08:30;12.00;82.80
61374;DHT22;47242;48.158;-1.586;2022-12-29T01:11:22;12.00;82.70
61374;DHT22;47242;48.158;-1.586;2022-12-29T01:13:48;11.90;82.50
61374;DHT22;47242;48.158;-1.586;2022-12-29T01:16:13;11.90;82.50
61374;DHT22;47242;48.158;-1.586;2022-12-29T01:18:44;11.90;82.00
61374;DHT22;47242;48.158;-1.586;2022-12-29T01:21:13;11.80;82.20
61374;DHT22;47242;48.158;-1.586;2022-12-29T01:23:39;11.80;82.10
61374;DHT22;47242;48.158;-1.586;2022-12-29T01:26:12;11.80;82.10
61374;DHT22;47242;48.158;-1.586;2022-12-29T01:28:38;11.80;82.00
61374;DHT22;47242;48.158;-1.586;2022-12-29T01:31:06;11.70;81.80
61374;DHT22;47242;48.158;-1.586;2022-12-29T01:33:32;11.80;81.50
61374;DHT22;47242;48.158;-1.586;2022-12-29T01:36:02;11.80;81.60
61374;DHT22;47242;48.158;-1.586;2022-12-29T01:38:32;11.80;81.70
61374;DHT22;47242;48.158;-1.586;2022-12-29T01:40:57;11.70;81.80
61374;DHT22;47242;48.158;-1.586;2022-12-29T01:46:36;11.70;80.90
61374;DHT22;47242;48.158;-1.586;2022-12-29T01:49:23;11.70;81.00
61374;DHT22;47242;48.158;-1.586;2022-12-29T01:51:59;11.70;80.70
61374;DHT22;47242;48.158;-1.586;2022-12-29T01:54:31;11.70;80.30
61374;DHT22;47242;48.158;-1.586;2022-12-29T01:57:01;11.70;80.10
61374;DHT22;47242;48.158;-1.586;2022-12-29T01:59:32;11.70;79.60
61374;DHT22;47242;48.158;-1.586;2022-12-29T02:02:00;11.60;79.20
61374;DHT22;47242;48.158;-1.586;2022-12-29T02:04:29;11.50;78.70
61374;DHT22;47242;48.158;-1.586;2022-12-29T02:07:01;11.50;78.40
61374;DHT22;47242;48.158;-1.586;2022-12-29T02:09:26;11.50;77.70
61374;DHT22;47242;48.158;-1.586;2022-12-29T02:11:52;11.60;78.00
61374;DHT22;47242;48.158;-1.586;2022-12-29T02:14:18;11.50;77.10
61374;DHT22;47242;48.158;-1.586;2022-12-29T02:25:35;11.50;77.10
61374;DHT22;47242;48.158;-1.586;2022-12-29T02:47:04;11.50;78.30
61374;DHT22;47242;48.158;-1.586;2022-12-29T02:50:01;11.50;78.40
61374;DHT22;47242;48.158;-1.586;2022-12-29T02:52:36;11.50;78.80
61374;DHT22;47242;48.158;-1.586;2022-12-29T02:55:04;11.50;78.60
61374;DHT22;47242;48.158;-1.586;2022-12-29T02:57:33;11.50;78.70
61374;DHT22;47242;48.158;-1.586;2022-12-29T03:00:07;11.50;78.90
61374;DHT22;47242;48.158;-1.586;2022-12-29T03:02:46;11.50;79.00
61374;DHT22;47242;48.158;-1.586;2022-12-29T03:10:47;11.40;79.10
61374;DHT22;47242;48.158;-1.586;2022-12-29T03:16:44;11.50;79.00
61374;DHT22;47242;48.158;-1.586;2022-12-29T03:19:16;11.40;79.10
61374;DHT22;47242;48.158;-1.586;2022-12-29T03:22:07;11.40;79.20
61374;DHT22;47242;48.158;-1.586;2022-12-29T03:24:55;11.40;79.30
61374;DHT22;47242;48.158;-1.586;2022-12-29T03:27:27;11.30;79.20
61374;DHT22;47242;48.158;-1.586;2022-12-29T03:30:03;11.40;79.60
61374;DHT22;47242;48.158;-1.586;2022-12-29T03:32:58;11.40;79.60
61374;DHT22;47242;48.158;-1.586;2022-12-29T03:35:27;11.30;79.60
61374;DHT22;47242;48.158;-1.586;2022-12-29T03:40:48;11.30;79.70
61374;DHT22;47242;48.158;-1.586;2022-12-29T03:43:20;11.30;79.60
61374;DHT22;47242;48.158;-1.586;2022-12-29T03:45:46;11.30;79.80
61374;DHT22;47242;48.158;-1.586;2022-12-29T03:48:11;11.30;79.60
61374;DHT22;47242;48.158;-1.586;2022-12-29T03:50:37;11.30;79.70
61374;DHT22;47242;48.158;-1.586;2022-12-29T03:53:03;11.20;79.30
61374;DHT22;47242;48.158;-1.586;2022-12-29T03:55:29;11.30;79.50
61374;DHT22;47242;48.158;-1.586;2022-12-29T03:57:56;11.20;79.50
61374;DHT22;47242;48.158;-1.586;2022-12-29T04:00:25;11.30;79.70
61374;DHT22;47242;48.158;-1.586;2022-12-29T04:02:51;11.20;79.00
61374;DHT22;47242;48.158;-1.586;2022-12-29T04:05:17;11.30;79.10
61374;DHT22;47242;48.158;-1.586;2022-12-29T04:07:43;11.30;79.00
61374;DHT22;47242;48.158;-1.586;2022-12-29T04:10:09;11.20;79.20
61374;DHT22;47242;48.158;-1.586;2022-12-29T04:12:34;11.20;79.10
61374;DHT22;47242;48.158;-1.586;2022-12-29T04:15:02;11.20;78.70
61374;DHT22;47242;48.158;-1.586;2022-12-29T04:17:46;11.20;79.20
61374;DHT22;47242;48.158;-1.586;2022-12-29T04:20:11;11.20;79.10
61374;DHT22;47242;48.158;-1.586;2022-12-29T04:23:00;11.20;79.20
61374;DHT22;47242;48.158;-1.586;2022-12-29T04:25:26;11.30;79.30
61374;DHT22;47242;48.158;-1.586;2022-12-29T04:27:52;11.20;79.20
61374;DHT22;47242;48.158;-1.586;2022-12-29T04:30:17;11.20;79.40
61374;DHT22;47242;48.158;-1.586;2022-12-29T04:32:43;11.20;79.50
61374;DHT22;47242;48.158;-1.586;2022-12-29T04:35:09;11.10;79.60
61374;DHT22;47242;48.158;-1.586;2022-12-29T04:37:34;11.10;79.70
61374;DHT22;47242;48.158;-1.586;2022-12-29T04:40:00;11.10;80.00
61374;DHT22;47242;48.158;-1.586;2022-12-29T04:42:26;11.10;80.40
61374;DHT22;47242;48.158;-1.586;2022-12-29T04:44:51;11.10;80.50
61374;DHT22;47242;48.158;-1.586;2022-12-29T04:47:17;11.20;80.30
61374;DHT22;47242;48.158;-1.586;2022-12-29T04:49:43;11.10;80.50
61374;DHT22;47242;48.158;-1.586;2022-12-29T04:52:08;11.10;80.50
61374;DHT22;47242;48.158;-1.586;2022-12-29T04:54:34;11.10;80.50
61374;DHT22;47242;48.158;-1.586;2022-12-29T04:57:00;11.10;80.60
61374;DHT22;47242;48.158;-1.586;2022-12-29T04:59:25;11.20;80.40
61374;DHT22;47242;48.158;-1.586;2022-12-29T05:01:51;11.20;80.50
61374;DHT22;47242;48.158;-1.586;2022-12-29T05:04:17;11.10;80.30
61374;DHT22;47242;48.158;-1.586;2022-12-29T05:06:42;11.00;80.40
61374;DHT22;47242;48.158;-1.586;2022-12-29T05:09:08;11.00;80.60
61374;DHT22;47242;48.158;-1.586;2022-12-29T05:11:34;11.00;80.50
61374;DHT22;47242;48.158;-1.586;2022-12-29T05:14:00;10.90;80.60
61374;DHT22;47242;48.158;-1.586;2022-12-29T05:16:25;11.00;80.50
61374;DHT22;47242;48.158;-1.586;2022-12-29T05:18:51;10.90;80.40
61374;DHT22;47242;48.158;-1.586;2022-12-29T05:21:16;11.00;80.50
61374;DHT22;47242;48.158;-1.586;2022-12-29T05:23:43;11.00;80.20
61374;DHT22;47242;48.158;-1.586;2022-12-29T05:26:08;11.00;79.90
61374;DHT22;47242;48.158;-1.586;2022-12-29T05:28:34;11.00;79.80
61374;DHT22;47242;48.158;-1.586;2022-12-29T05:31:00;11.00;79.50
61374;DHT22;47242;48.158;-1.586;2022-12-29T05:33:25;10.90;79.70
61374;DHT22;47242;48.158;-1.586;2022-12-29T05:35:51;10.80;79.50
61374;DHT22;47242;48.158;-1.586;2022-12-29T05:38:17;10.80;80.00
61374;DHT22;47242;48.158;-1.586;2022-12-29T05:40:43;10.80;79.90
61374;DHT22;47242;48.158;-1.586;2022-12-29T05:43:09;10.80;79.80
61374;DHT22;47242;48.158;-1.586;2022-12-29T05:45:36;10.80;79.80
61374;DHT22;47242;48.158;-1.586;2022-12-29T05:48:02;10.70;80.10
61374;DHT22;47242;48.158;-1.586;2022-12-29T05:50:28;10.70;80.30
61374;DHT22;47242;48.158;-1.586;2022-12-29T05:52:53;10.80;80.30
61374;DHT22;47242;48.158;-1.586;2022-12-29T05:55:19;10.70;80.10
61374;DHT22;47242;48.158;-1.586;2022-12-29T05:57:45;10.70;80.10
61374;DHT22;47242;48.158;-1.586;2022-12-29T06:00:11;10.60;80.30
61374;DHT22;47242;48.158;-1.586;2022-12-29T06:02:37;10.50;79.90
61374;DHT22;47242;48.158;-1.586;2022-12-29T06:05:02;10.50;80.40
61374;DHT22;47242;48.158;-1.586;2022-12-29T06:07:28;10.50;80.20
61374;DHT22;47242;48.158;-1.586;2022-12-29T06:09:54;10.60;80.10
61374;DHT22;47242;48.158;-1.586;2022-12-29T06:12:19;10.60;79.80
61374;DHT22;47242;48.158;-1.586;2022-12-29T06:14:47;10.60;79.90
61374;DHT22;47242;48.158;-1.586;2022-12-29T06:17:15;10.60;79.80
61374;DHT22;47242;48.158;-1.586;2022-12-29T06:19:41;10.60;79.40
61374;DHT22;47242;48.158;-1.586;2022-12-29T06:22:06;10.50;79.40
61374;DHT22;47242;48.158;-1.586;2022-12-29T06:24:32;10.50;79.30
61374;DHT22;47242;48.158;-1.586;2022-12-29T06:26:58;10.50;79.60
61374;DHT22;47242;48.158;-1.586;2022-12-29T06:29:24;10.50;79.00
61374;DHT22;47242;48.158;-1.586;2022-12-29T06:31:52;10.50;79.40
61374;DHT22;47242;48.158;-1.586;2022-12-29T06:34:21;10.30;79.30
61374;DHT22;47242;48.158;-1.586;2022-12-29T06:36:47;10.40;79.20
61374;DHT22;47242;48.158;-1.586;2022-12-29T06:39:12;10.40;79.50
61374;DHT22;47242;48.158;-1.586;2022-12-29T06:41:38;10.30;79.20
61374;DHT22;47242;48.158;-1.586;2022-12-29T06:44:04;10.40;79.10
61374;DHT22;47242;48.158;-1.586;2022-12-29T06:46:29;10.40;79.00
61374;DHT22;47242;48.158;-1.586;2022-12-29T06:49:03;10.30;78.90
61374;DHT22;47242;48.158;-1.586;2022-12-29T06:51:28;10.30;79.00
61374;DHT22;47242;48.158;-1.586;2022-12-29T06:53:54;10.30;79.40
61374;DHT22;47242;48.158;-1.586;2022-12-29T06:56:19;10.30;79.20
61374;DHT22;47242;48.158;-1.586;2022-12-29T06:58:45;10.30;79.20
61374;DHT22;47242;48.158;-1.586;2022-12-29T07:01:11;10.30;79.30
61374;DHT22;47242;48.158;-1.586;2022-12-29T07:03:36;10.30;79.30
61374;DHT22;47242;48.158;-1.586;2022-12-29T07:06:02;10.30;79.40
61374;DHT22;47242;48.158;-1.586;2022-12-29T07:08:28;10.40;79.60
61374;DHT22;47242;48.158;-1.586;2022-12-29T07:10:54;10.30;79.30
61374;DHT22;47242;48.158;-1.586;2022-12-29T07:13:19;10.30;79.60
61374;DHT22;47242;48.158;-1.586;2022-12-29T07:15:45;10.30;79.90
61374;DHT22;47242;48.158;-1.586;2022-12-29T07:18:11;10.40;79.70
61374;DHT22;47242;48.158;-1.586;2022-12-29T07:20:36;10.40;79.90
61374;DHT22;47242;48.158;-1.586;2022-12-29T07:23:02;10.40;79.80
61374;DHT22;47242;48.158;-1.586;2022-12-29T07:25:35;10.40;79.40
61374;DHT22;47242;48.158;-1.586;2022-12-29T07:28:02;10.40;79.60
61374;DHT22;47242;48.158;-1.586;2022-12-29T07:30:27;10.40;79.80
61374;DHT22;47242;48.158;-1.586;2022-12-29T07:32:53;10.40;79.80
61374;DHT22;47242;48.158;-1.586;2022-12-29T07:35:19;10.40;79.50
61374;DHT22;47242;48.158;-1.586;2022-12-29T07:37:45;10.30;79.70
61374;DHT22;47242;48.158;-1.586;2022-12-29T07:40:11;10.30;79.70
61374;DHT22;47242;48.158;-1.586;2022-12-29T07:42:37;10.30;79.60
61374;DHT22;47242;48.158;-1.586;2022-12-29T07:45:03;10.30;79.80
61374;DHT22;47242;48.158;-1.586;2022-12-29T07:47:28;10.30;79.70
61374;DHT22;47242;48.158;-1.586;2022-12-29T07:49:54;10.30;79.80
61374;DHT22;47242;48.158;-1.586;2022-12-29T07:52:20;10.20;79.60
61374;DHT22;47242;48.158;-1.586;2022-12-29T07:54:45;10.20;79.60
61374;DHT22;47242;48.158;-1.586;2022-12-29T07:57:21;10.20;79.70
61374;DHT22;47242;48.158;-1.586;2022-12-29T07:59:46;10.20;79.80
61374;DHT22;47242;48.158;-1.586;2022-12-29T08:02:12;10.20;79.90
61374;DHT22;47242;48.158;-1.586;2022-12-29T08:04:38;10.10;80.10
61374;DHT22;47242;48.158;-1.586;2022-12-29T08:07:03;10.10;80.30
61374;DHT22;47242;48.158;-1.586;2022-12-29T08:09:29;10.10;80.40
61374;DHT22;47242;48.158;-1.586;2022-12-29T08:11:55;10.10;80.30
61374;DHT22;47242;48.158;-1.586;2022-12-29T08:14:20;10.10;80.50
61374;DHT22;47242;48.158;-1.586;2022-12-29T08:16:46;10.10;80.50
61374;DHT22;47242;48.158;-1.586;2022-12-29T08:19:12;10.20;80.40
61374;DHT22;47242;48.158;-1.586;2022-12-29T08:21:38;10.10;80.50
61374;DHT22;47242;48.158;-1.586;2022-12-29T08:24:05;10.10;80.30
61374;DHT22;47242;48.158;-1.586;2022-12-29T08:26:31;10.10;80.30
61374;DHT22;47242;48.158;-1.586;2022-12-29T08:28:56;10.00;80.30
61374;DHT22;47242;48.158;-1.586;2022-12-29T08:31:23;10.10;80.20
61374;DHT22;47242;48.158;-1.586;2022-12-29T08:33:49;10.10;80.30
61374;DHT22;47242;48.158;-1.586;2022-12-29T08:36:15;10.10;79.90
61374;DHT22;47242;48.158;-1.586;2022-12-29T08:38:41;10.20;80.00
61374;DHT22;47242;48.158;-1.586;2022-12-29T08:41:06;10.20;79.90
61374;DHT22;47242;48.158;-1.586;2022-12-29T08:43:32;10.20;79.70
61374;DHT22;47242;48.158;-1.586;2022-12-29T08:45:58;10.20;79.80
61374;DHT22;47242;48.158;-1.586;2022-12-29T08:48:24;10.30;79.60
61374;DHT22;47242;48.158;-1.586;2022-12-29T08:50:50;10.30;79.60
61374;DHT22;47242;48.158;-1.586;2022-12-29T08:53:17;10.30;79.50
61374;DHT22;47242;48.158;-1.586;2022-12-29T08:55:45;10.30;79.30
61374;DHT22;47242;48.158;-1.586;2022-12-29T08:58:12;10.30;79.30
61374;DHT22;47242;48.158;-1.586;2022-12-29T09:00:40;10.30;79.20
61374;DHT22;47242;48.158;-1.586;2022-12-29T09:03:06;10.30;79.10
61374;DHT22;47242;48.158;-1.586;2022-12-29T09:05:32;10.40;79.00
61374;DHT22;47242;48.158;-1.586;2022-12-29T09:07:57;10.50;78.90
61374;DHT22;47242;48.158;-1.586;2022-12-29T09:10:23;10.40;78.80
61374;DHT22;47242;48.158;-1.586;2022-12-29T09:12:49;10.50;78.90
61374;DHT22;47242;48.158;-1.586;2022-12-29T09:15:15;10.40;78.80
61374;DHT22;47242;48.158;-1.586;2022-12-29T09:17:41;10.50;78.70
61374;DHT22;47242;48.158;-1.586;2022-12-29T09:20:14;10.40;78.90
61374;DHT22;47242;48.158;-1.586;2022-12-29T09:22:41;10.50;79.10
61374;DHT22;47242;48.158;-1.586;2022-12-29T09:25:07;10.40;79.30
61374;DHT22;47242;48.158;-1.586;2022-12-29T09:27:33;10.50;79.30
61374;DHT22;47242;48.158;-1.586;2022-12-29T09:29:59;10.50;79.40
61374;DHT22;47242;48.158;-1.586;2022-12-29T09:32:24;10.60;79.60
61374;DHT22;47242;48.158;-1.586;2022-12-29T09:34:50;10.60;79.50
61374;DHT22;47242;48.158;-1.586;2022-12-29T09:37:16;10.70;79.50
61374;DHT22;47242;48.158;-1.586;2022-12-29T09:39:41;10.70;79.30
61374;DHT22;47242;48.158;-1.586;2022-12-29T09:42:15;10.80;79.10
61374;DHT22;47242;48.158;-1.586;2022-12-29T09:47:14;10.80;79.10
61374;DHT22;47242;48.158;-1.586;2022-12-29T09:52:20;10.80;79.30
61374;DHT22;47242;48.158;-1.586;2022-12-29T09:55:17;10.90;79.10
61374;DHT22;47242;48.158;-1.586;2022-12-29T09:57:57;10.90;79.10
61374;DHT22;47242;48.158;-1.586;2022-12-29T10:00:52;10.90;78.70
61374;DHT22;47242;48.158;-1.586;2022-12-29T10:03:20;11.00;78.80
61374;DHT22;47242;48.158;-1.586;2022-12-29T10:06:10;11.10;78.50
61374;DHT22;47242;48.158;-1.586;2022-12-29T10:17:19;11.20;78.20
61374;DHT22;47242;48.158;-1.586;2022-12-29T10:25:20;11.50;77.90
61374;DHT22;47242;48.158;-1.586;2022-12-29T10:27:50;11.60;77.50
61374;DHT22;47242;48.158;-1.586;2022-12-29T10:30:17;11.50;77.20
61374;DHT22;47242;48.158;-1.586;2022-12-29T10:32:50;11.60;77.20
61374;DHT22;47242;48.158;-1.586;2022-12-29T10:35:38;11.60;76.90
61374;DHT22;47242;48.158;-1.586;2022-12-29T10:38:29;11.70;76.70
61374;DHT22;47242;48.158;-1.586;2022-12-29T10:41:32;11.80;76.50
61374;DHT22;47242;48.158;-1.586;2022-12-29T10:43:56;11.80;76.30
61374;DHT22;47242;48.158;-1.586;2022-12-29T10:46:26;11.90;75.90
61374;DHT22;47242;48.158;-1.586;2022-12-29T10:48:53;11.80;75.80
61374;DHT22;47242;48.158;-1.586;2022-12-29T10:51:27;11.90;75.90
61374;DHT22;47242;48.158;-1.586;2022-12-29T10:53:59;11.80;75.20
61374;DHT22;47242;48.158;-1.586;2022-12-29T10:56:36;11.80;74.80
61374;DHT22;47242;48.158;-1.586;2022-12-29T10:59:26;11.80;75.10
61374;DHT22;47242;48.158;-1.586;2022-12-29T11:07:08;11.90;74.30
61374;DHT22;47242;48.158;-1.586;2022-12-29T11:09:36;11.90;73.80
61374;DHT22;47242;48.158;-1.586;2022-12-29T11:14:44;11.90;73.20
61374;DHT22;47242;48.158;-1.586;2022-12-29T11:17:15;11.90;72.90
61374;DHT22;47242;48.158;-1.586;2022-12-29T11:19:41;12.00;72.40
61374;DHT22;47242;48.158;-1.586;2022-12-29T11:22:27;12.00;72.50
61374;DHT22;47242;48.158;-1.586;2022-12-29T11:24:54;12.00;71.80
61374;DHT22;47242;48.158;-1.586;2022-12-29T11:27:24;12.10;71.20
61374;DHT22;47242;48.158;-1.586;2022-12-29T11:29:52;12.10;70.30
61374;DHT22;47242;48.158;-1.586;2022-12-29T11:34:49;12.00;70.10
61374;DHT22;47242;48.158;-1.586;2022-12-29T11:39:55;12.10;69.10
61374;DHT22;47242;48.158;-1.586;2022-12-29T11:42:38;12.10;69.50
61374;DHT22;47242;48.158;-1.586;2022-12-29T11:45:16;12.20;69.10
61374;DHT22;47242;48.158;-1.586;2022-12-29T11:47:46;12.20;68.90
61374;DHT22;47242;48.158;-1.586;2022-12-29T11:50:27;12.30;69.50
61374;DHT22;47242;48.158;-1.586;2022-12-29T11:53:17;12.30;69.00
61374;DHT22;47242;48.158;-1.586;2022-12-29T11:55:59;12.30;69.50
61374;DHT22;47242;48.158;-1.586;2022-12-29T11:58:33;12.30;69.20
61374;DHT22;47242;48.158;-1.586;2022-12-29T12:04:01;12.30;69.10
61374;DHT22;47242;48.158;-1.586;2022-12-29T12:06:28;12.40;69.60
61374;DHT22;47242;48.158;-1.586;2022-12-29T12:08:57;12.40;69.90
61374;DHT22;47242;48.158;-1.586;2022-12-29T12:11:34;12.50;69.10
61374;DHT22;47242;48.158;-1.586;2022-12-29T12:14:20;12.60;69.60
61374;DHT22;47242;48.158;-1.586;2022-12-29T12:16:57;12.70;69.70
61374;DHT22;47242;48.158;-1.586;2022-12-29T12:22:41;12.50;68.60
61374;DHT22;47242;48.158;-1.586;2022-12-29T12:25:17;12.60;68.90
61374;DHT22;47242;48.158;-1.586;2022-12-29T12:27:55;12.60;68.80
61374;DHT22;47242;48.158;-1.586;2022-12-29T12:30:25;12.70;68.40
61374;DHT22;47242;48.158;-1.586;2022-12-29T12:32:54;12.80;68.30
61374;DHT22;47242;48.158;-1.586;2022-12-29T13:00:03;12.80;66.40
61374;DHT22;47242;48.158;-1.586;2022-12-29T13:02:47;12.80;66.10
61374;DHT22;47242;48.158;-1.586;2022-12-29T13:19:47;12.70;67.70
61374;DHT22;47242;48.158;-1.586;2022-12-29T13:22:21;12.70;67.90
61374;DHT22;47242;48.158;-1.586;2022-12-29T13:25:17;12.70;67.30
61374;DHT22;47242;48.158;-1.586;2022-12-29T13:30:44;12.50;68.10
61374;DHT22;47242;48.158;-1.586;2022-12-29T13:36:20;12.20;74.30
61374;DHT22;47242;48.158;-1.586;2022-12-29T13:38:42;12.20;74.90
61374;DHT22;47242;48.158;-1.586;2022-12-29T13:41:18;12.10;75.40
61374;DHT22;47242;48.158;-1.586;2022-12-29T13:43:45;12.00;76.20
61374;DHT22;47242;48.158;-1.586;2022-12-29T13:46:23;12.10;76.30
61374;DHT22;47242;48.158;-1.586;2022-12-29T13:49:20;12.20;76.60
61374;DHT22;47242;48.158;-1.586;2022-12-29T13:52:04;12.20;76.60
61374;DHT22;47242;48.158;-1.586;2022-12-29T13:54:39;12.10;76.50
61374;DHT22;47242;48.158;-1.586;2022-12-29T13:57:16;12.10;76.70
61374;DHT22;47242;48.158;-1.586;2022-12-29T13:59:57;12.10;76.80
61374;DHT22;47242;48.158;-1.586;2022-12-29T14:02:41;12.10;76.40
61374;DHT22;47242;48.158;-1.586;2022-12-29T14:07:46;12.00;75.40
61374;DHT22;47242;48.158;-1.586;2022-12-29T14:10:34;12.00;75.60
61374;DHT22;47242;48.158;-1.586;2022-12-29T14:13:22;12.10;75.70
61374;DHT22;47242;48.158;-1.586;2022-12-29T14:18:21;12.00;74.60
61374;DHT22;47242;48.158;-1.586;2022-12-29T14:28:35;12.20;73.50
61374;DHT22;47242;48.158;-1.586;2022-12-29T14:31:03;11.90;73.50
61374;DHT22;47242;48.158;-1.586;2022-12-29T14:33:33;12.00;73.10
61374;DHT22;47242;48.158;-1.586;2022-12-29T14:38:46;12.10;73.00
61374;DHT22;47242;48.158;-1.586;2022-12-29T14:47:05;12.20;72.90
61374;DHT22;47242;48.158;-1.586;2022-12-29T14:49:40;12.10;73.10
61374;DHT22;47242;48.158;-1.586;2022-12-29T14:52:19;12.10;73.30
61374;DHT22;47242;48.158;-1.586;2022-12-29T14:54:52;12.00;73.00
61374;DHT22;47242;48.158;-1.586;2022-12-29T14:57:35;12.00;73.90
61374;DHT22;47242;48.158;-1.586;2022-12-29T15:00:18;12.00;74.20
61374;DHT22;47242;48.158;-1.586;2022-12-29T15:02:48;12.00;74.50
61374;DHT22;47242;48.158;-1.586;2022-12-29T15:05:36;12.00;74.90
61374;DHT22;47242;48.158;-1.586;2022-12-29T15:08:03;11.90;74.90
61374;DHT22;47242;48.158;-1.586;2022-12-29T15:10:48;12.00;75.10
61374;DHT22;47242;48.158;-1.586;2022-12-29T15:13:21;12.10;75.30
61374;DHT22;47242;48.158;-1.586;2022-12-29T15:15:47;12.00;74.90
61374;DHT22;47242;48.158;-1.586;2022-12-29T15:20:51;12.10;74.70
61374;DHT22;47242;48.158;-1.586;2022-12-29T15:23:18;12.00;74.60
61374;DHT22;47242;48.158;-1.586;2022-12-29T15:25:54;12.00;75.10
61374;DHT22;47242;48.158;-1.586;2022-12-29T15:28:21;11.90;74.80
61374;DHT22;47242;48.158;-1.586;2022-12-29T15:31:02;11.90;74.70
61374;DHT22;47242;48.158;-1.586;2022-12-29T15:33:28;11.80;74.90
61374;DHT22;47242;48.158;-1.586;2022-12-29T15:35:55;11.80;75.10
61374;DHT22;47242;48.158;-1.586;2022-12-29T15:38:27;11.80;75.00
61374;DHT22;47242;48.158;-1.586;2022-12-29T15:40:56;11.70;75.20
61374;DHT22;47242;48.158;-1.586;2022-12-29T15:46:00;11.70;75.10
61374;DHT22;47242;48.158;-1.586;2022-12-29T15:48:27;11.60;74.30
61374;DHT22;47242;48.158;-1.586;2022-12-29T15:50:53;11.50;74.40
61374;DHT22;47242;48.158;-1.586;2022-12-29T15:53:28;11.50;74.50
61374;DHT22;47242;48.158;-1.586;2022-12-29T15:56:01;11.50;73.80
61374;DHT22;47242;48.158;-1.586;2022-12-29T15:58:30;11.40;73.40
61374;DHT22;47242;48.158;-1.586;2022-12-29T16:00:58;11.30;73.00
61374;DHT22;47242;48.158;-1.586;2022-12-29T16:03:26;11.20;73.80
61374;DHT22;47242;48.158;-1.586;2022-12-29T16:05:55;11.20;73.50
61374;DHT22;47242;48.158;-1.586;2022-12-29T16:08:32;11.20;73.60
61374;DHT22;47242;48.158;-1.586;2022-12-29T16:11:01;11.10;73.30
61374;DHT22;47242;48.158;-1.586;2022-12-29T16:13:34;11.10;73.60
61374;DHT22;47242;48.158;-1.586;2022-12-29T16:16:52;11.10;73.40
61374;DHT22;47242;48.158;-1.586;2022-12-29T16:18:53;11.10;73.70
61374;DHT22;47242;48.158;-1.586;2022-12-29T16:21:26;11.10;73.80
61374;DHT22;47242;48.158;-1.586;2022-12-29T16:23:54;11.00;74.10
61374;DHT22;47242;48.158;-1.586;2022-12-29T16:26:22;11.00;73.80
61374;DHT22;47242;48.158;-1.586;2022-12-29T16:28:51;11.00;73.80
61374;DHT22;47242;48.158;-1.586;2022-12-29T16:31:18;10.80;73.80
61374;DHT22;47242;48.158;-1.586;2022-12-29T16:33:48;10.90;74.30
61374;DHT22;47242;48.158;-1.586;2022-12-29T16:38:49;10.80;74.10
61374;DHT22;47242;48.158;-1.586;2022-12-29T16:41:31;10.80;74.20
61374;DHT22;47242;48.158;-1.586;2022-12-29T16:44:17;10.80;74.50
61374;DHT22;47242;48.158;-1.586;2022-12-29T16:47:24;10.80;74.40
61374;DHT22;47242;48.158;-1.586;2022-12-29T16:49:52;10.80;74.70
61374;DHT22;47242;48.158;-1.586;2022-12-29T16:52:19;10.70;74.90
61374;DHT22;47242;48.158;-1.586;2022-12-29T16:55:04;10.70;75.10
61374;DHT22;47242;48.158;-1.586;2022-12-29T16:57:36;10.60;75.30
61374;DHT22;47242;48.158;-1.586;2022-12-29T17:00:07;10.70;75.50
61374;DHT22;47242;48.158;-1.586;2022-12-29T17:02:34;10.50;75.70
61374;DHT22;47242;48.158;-1.586;2022-12-29T17:05:12;10.40;76.30
61374;DHT22;47242;48.158;-1.586;2022-12-29T17:07:39;10.40;76.50
61374;DHT22;47242;48.158;-1.586;2022-12-29T17:10:05;10.40;76.50
61374;DHT22;47242;48.158;-1.586;2022-12-29T17:12:33;10.40;76.60
61374;DHT22;47242;48.158;-1.586;2022-12-29T17:15:01;10.40;76.60
61374;DHT22;47242;48.158;-1.586;2022-12-29T17:17:40;10.40;76.60
61374;DHT22;47242;48.158;-1.586;2022-12-29T17:20:16;10.40;76.40
61374;DHT22;47242;48.158;-1.586;2022-12-29T17:22:43;10.40;76.40
61374;DHT22;47242;48.158;-1.586;2022-12-29T17:25:13;10.30;76.70
61374;DHT22;47242;48.158;-1.586;2022-12-29T17:27:48;10.30;76.70
61374;DHT22;47242;48.158;-1.586;2022-12-29T17:30:18;10.30;76.70
61374;DHT22;47242;48.158;-1.586;2022-12-29T17:35:22;10.30;76.80
61374;DHT22;47242;48.158;-1.586;2022-12-29T17:37:48;10.30;76.80
61374;DHT22;47242;48.158;-1.586;2022-12-29T17:40:17;10.30;77.00
61374;DHT22;47242;48.158;-1.586;2022-12-29T17:42:48;10.20;77.00
61374;DHT22;47242;48.158;-1.586;2022-12-29T17:45:17;10.20;77.20
61374;DHT22;47242;48.158;-1.586;2022-12-29T17:47:43;10.20;77.20
61374;DHT22;47242;48.158;-1.586;2022-12-29T17:50:15;10.20;77.20
61374;DHT22;47242;48.158;-1.586;2022-12-29T17:52:42;10.10;77.50
61374;DHT22;47242;48.158;-1.586;2022-12-29T17:55:15;10.10;77.70
61374;DHT22;47242;48.158;-1.586;2022-12-29T17:57:42;10.10;77.60
61374;DHT22;47242;48.158;-1.586;2022-12-29T18:00:23;10.10;77.70
61374;DHT22;47242;48.158;-1.586;2022-12-29T18:02:52;10.10;77.80
61374;DHT22;47242;48.158;-1.586;2022-12-29T18:05:20;10.00;78.10
61374;DHT22;47242;48.158;-1.586;2022-12-29T18:07:45;10.10;78.10
61374;DHT22;47242;48.158;-1.586;2022-12-29T18:10:12;9.90;78.10
61374;DHT22;47242;48.158;-1.586;2022-12-29T18:12:45;10.00;78.40
61374;DHT22;47242;48.158;-1.586;2022-12-29T18:15:27;10.00;78.50